FSIA/SEZ METAR and TAF weather

Enter ICAO airport designator
Station Type Date Time Source
FSIA METAR 2022/01/19 20:00 UTC NOAA

FSIA 192000Z 32005KT 290V350 9999 FEW017CB BKN020 27/24 Q1012 TEMPO 8000 SHRA


Station Type Date Time Source
FSIA Decoded METAR 2022/01/19 20:00 UTC NOAA

Seychelles Inter-National Airport, Seychelles (FSIA) 04-40S 055-31E 3M
Jan 19, 2022 - 03:00 PM EST / 2022.01.19 2000 UTC
Wind: from the NW (320 degrees) at 6 MPH (5 KT) (direction variable):0
Visibility: greater than 7 mile(s):0
Sky conditions: mostly cloudy
Weather: Cumulonimbus clouds observed
Temperature: 80 F (27 C)
Dew Point: 75 F (24 C)
Relative Humidity: 83%
Pressure (altimeter): 29.88 in. Hg (1012 hPa)
ob: FSIA 192000Z 32005KT 290V350 9999 FEW017CB BKN020 27/24 Q1012 TEMPO 8000 SHRA
cycle: 20

Station Type Date Time Source
FSIA TAF 2022/01/19 18:42 UTC NOAA

TAF TAF COR FSIA 181701Z 1818/1918 33012KT 9999 FEW019CB SCT021
TEMPO 1818/1824 8000 SHRA FEW012 FEW017CB BKN019

Example: see airport list